EGHI

Southampton Airport

Southampton, United Kingdom
METAR EGHI 171020Z 27012G22KT 220V310 CAVOK 06/M01 Q1009
Observed Flight Rules
Jan-17 @ 10:20 UTC (39 minutes ago) Visual Flight Rules
Wind Visibility Clouds
270° at 12 knots
 Gusting to 22 knots
10,000+ meters
  • Clear skies
Temperatures Readings
Current 6°C / 43°F
Dewpoint -1°C / 30°F
Humidity 61%
Altimeter 29.79" Hg
Pressure 1009 hPa
Elevation 14
METAR EGHI 171020Z 27012G22KT 220V310 CAVOK 06/M01 Q1009
Observed Flight Rules
Jan-17 @ 10:20 UTC
(39 minutes ago)
VFR
Wind Visibility
270° at 12 knots
 Gusting to 22 knots
10,000+ meters
Clouds
  • Clear skies
Temperature Dewpoint
6°C / 43°F -1°C / 30°F
Humidity Altimeter Pressure
61% 29.79" Hg 1009 hPa